createdAt,value
2018-11-14T00:00:27.884Z,7.74
2018-11-14T00:02:57.821Z,7.62
2018-11-14T00:05:27.058Z,7.64
2018-11-14T00:07:56.295Z,7.61
2018-11-14T00:10:25.515Z,7.69
2018-11-14T00:12:54.725Z,7.65
2018-11-14T00:15:25.016Z,7.68
2018-11-14T00:17:54.375Z,7.61
2018-11-14T00:20:23.601Z,7.61
2018-11-14T00:22:53.236Z,7.53
2018-11-14T00:25:22.454Z,7.46
2018-11-14T00:27:51.668Z,7.51
2018-11-14T00:30:22.150Z,7.51
2018-11-14T00:32:51.339Z,7.45
2018-11-14T00:35:20.583Z,7.45
2018-11-14T00:37:50.051Z,7.53
2018-11-14T00:40:20.428Z,7.56
2018-11-14T00:42:50.711Z,7.52
2018-11-14T00:45:21.319Z,7.40
2018-11-14T00:47:50.894Z,7.42
2018-11-14T00:50:20.987Z,7.36
2018-11-14T00:52:50.147Z,7.36
2018-11-14T00:55:20.905Z,7.44
2018-11-14T00:57:50.890Z,7.56
2018-11-14T01:00:26.399Z,7.46
2018-11-14T01:02:55.620Z,7.40
2018-11-14T01:05:24.818Z,7.33
2018-11-14T01:07:54.010Z,7.35
2018-11-14T01:10:23.337Z,7.22
2018-11-14T01:12:52.681Z,7.17
2018-11-14T01:15:23.193Z,7.19
2018-11-14T01:17:52.370Z,7.12
2018-11-14T01:20:22.321Z,7.24
2018-11-14T01:22:51.537Z,7.08
2018-11-14T01:25:20.776Z,6.99
2018-11-14T01:27:49.964Z,6.91
2018-11-14T01:30:22.691Z,6.89
2018-11-14T01:32:52.280Z,6.94
2018-11-14T01:35:21.648Z,6.88
2018-11-14T01:37:50.856Z,6.86
2018-11-14T01:40:22.316Z,6.87
2018-11-14T01:42:52.829Z,6.90
2018-11-14T01:45:22.019Z,6.87
2018-11-14T01:47:51.313Z,6.90
2018-11-14T01:50:20.844Z,6.82
2018-11-14T01:52:50.015Z,6.81
2018-11-14T01:55:20.623Z,6.81
2018-11-14T01:57:49.911Z,6.68
2018-11-14T02:00:23.112Z,6.76
2018-11-14T02:02:52.358Z,6.71
2018-11-14T02:05:21.815Z,6.68
2018-11-14T02:07:51.017Z,6.68
2018-11-14T02:10:21.173Z,6.67
2018-11-14T02:12:50.357Z,6.60
2018-11-14T02:15:22.295Z,6.58
2018-11-14T02:17:51.763Z,6.59
2018-11-14T02:20:20.989Z,6.54
2018-11-14T02:22:50.296Z,6.51
2018-11-14T02:25:20.093Z,6.52
2018-11-14T02:27:49.451Z,6.55
2018-11-14T02:30:20.895Z,6.56
2018-11-14T02:32:50.103Z,6.55
2018-11-14T02:35:19.411Z,6.49
2018-11-14T02:37:48.990Z,6.51
2018-11-14T02:40:20.214Z,6.49
2018-11-14T02:42:49.454Z,6.62
2018-11-14T02:45:19.493Z,6.58
2018-11-14T02:47:48.690Z,6.55
2018-11-14T02:50:18.432Z,6.44
2018-11-14T02:52:47.688Z,6.53
2018-11-14T02:55:17.840Z,6.50
2018-11-14T02:57:48.564Z,6.54
2018-11-14T03:00:19.832Z,6.59
2018-11-14T03:02:49.127Z,6.44
2018-11-14T03:05:18.868Z,6.35
2018-11-14T03:07:48.073Z,6.40
2018-11-14T03:10:19.899Z,6.40
2018-11-14T03:12:49.127Z,6.40
2018-11-14T03:15:20.472Z,6.32
2018-11-14T03:17:49.747Z,6.35
2018-11-14T03:20:20.129Z,6.24
2018-11-14T03:22:49.474Z,6.16
2018-11-14T03:25:19.412Z,6.20
2018-11-14T03:27:48.636Z,6.37
2018-11-14T03:30:19.410Z,6.35
2018-11-14T03:32:48.603Z,6.25
2018-11-14T03:35:18.781Z,6.14
2018-11-14T03:37:48.088Z,6.21
2018-11-14T03:40:19.979Z,6.13
2018-11-14T03:42:49.237Z,6.13
2018-11-14T03:45:18.773Z,6.06
2018-11-14T03:47:48.345Z,6.00
2018-11-14T03:50:18.578Z,6.00
2018-11-14T03:52:47.801Z,6.05
2018-11-14T03:55:17.707Z,6.02
2018-11-14T03:57:46.946Z,6.00
2018-11-14T04:00:17.237Z,5.90
2018-11-14T04:02:47.084Z,5.92
2018-11-14T04:05:16.355Z,5.91
2018-11-14T04:07:45.539Z,5.98
2018-11-14T04:10:16.573Z,5.94
2018-11-14T04:12:45.832Z,5.74
2018-11-14T04:15:16.303Z,5.62
2018-11-14T04:17:45.524Z,5.51
2018-11-14T04:20:16.707Z,5.50
2018-11-14T04:22:46.514Z,5.22
2018-11-14T04:25:18.405Z,5.19
2018-11-14T04:27:48.086Z,4.98
2018-11-14T04:30:19.687Z,4.84
2018-11-14T04:32:49.106Z,4.76
2018-11-14T04:35:19.821Z,4.82
2018-11-14T04:37:51.875Z,4.74
2018-11-14T04:40:22.272Z,4.74
2018-11-14T04:42:51.462Z,4.87
2018-11-14T04:45:22.048Z,5.03
2018-11-14T04:47:51.294Z,5.09
2018-11-14T04:50:22.125Z,5.10
2018-11-14T04:52:51.611Z,5.09
2018-11-14T04:55:21.805Z,5.14
2018-11-14T04:57:51.216Z,5.37
2018-11-14T05:00:22.656Z,5.37
2018-11-14T05:02:52.063Z,5.47
2018-11-14T05:05:23.698Z,5.56
2018-11-14T05:07:52.871Z,5.63
2018-11-14T05:10:23.908Z,5.58
2018-11-14T05:12:53.375Z,5.61
2018-11-14T05:15:23.926Z,5.60
2018-11-14T05:17:53.536Z,5.64
2018-11-14T05:20:23.000Z,5.75
2018-11-14T05:22:52.431Z,5.84
2018-11-14T05:25:21.886Z,5.94
2018-11-14T05:27:51.040Z,6.08
2018-11-14T05:30:21.406Z,6.16
2018-11-14T05:32:51.028Z,6.19
2018-11-14T05:35:21.061Z,6.28
2018-11-14T05:37:50.455Z,6.28
2018-11-14T05:40:22.198Z,6.37
2018-11-14T05:42:51.986Z,6.35
2018-11-14T05:45:23.185Z,6.40
2018-11-14T05:47:52.799Z,6.49
2018-11-14T05:50:22.701Z,6.49
2018-11-14T05:52:51.965Z,6.49
2018-11-14T05:55:21.180Z,6.42
2018-11-14T05:57:50.508Z,6.44
2018-11-14T06:00:36.216Z,6.41
2018-11-14T06:03:05.576Z,6.45
2018-11-14T06:05:34.943Z,6.41
2018-11-14T06:08:05.056Z,6.24
2018-11-14T06:10:34.224Z,6.19
2018-11-14T06:13:03.442Z,6.15
2018-11-14T06:15:32.661Z,6.21
2018-11-14T06:18:01.864Z,6.18
2018-11-14T06:20:31.045Z,6.11
2018-11-14T06:23:00.218Z,6.09
2018-11-14T06:25:31.443Z,6.13
2018-11-14T06:28:01.777Z,6.22
2018-11-14T06:30:31.276Z,6.37
2018-11-14T06:33:01.264Z,5.99
2018-11-14T06:35:30.478Z,5.98
2018-11-14T06:37:59.627Z,5.91
2018-11-14T06:40:28.945Z,5.70
2018-11-14T06:42:58.098Z,5.70
2018-11-14T06:45:28.516Z,5.67
2018-11-14T06:47:58.855Z,5.65
2018-11-14T06:50:28.098Z,5.59
2018-11-14T06:52:58.687Z,5.54
2018-11-14T06:55:27.904Z,5.56
2018-11-14T06:57:57.104Z,5.62
2018-11-14T07:00:33.767Z,5.66
2018-11-14T07:03:04.341Z,5.62
2018-11-14T07:05:33.615Z,5.62
2018-11-14T07:08:02.779Z,5.66
2018-11-14T07:10:34.248Z,5.74
2018-11-14T07:13:08.929Z,5.80
2018-11-14T07:15:38.519Z,5.80
2018-11-14T07:18:08.662Z,5.83
2018-11-14T07:20:39.263Z,5.80
2018-11-14T07:23:08.918Z,5.91
2018-11-14T07:25:38.083Z,5.91
2018-11-14T07:28:07.566Z,5.87
2018-11-14T07:30:37.198Z,5.83
2018-11-14T07:33:07.901Z,5.91
2018-11-14T07:35:37.079Z,6.04
2018-11-14T07:38:45.038Z,6.14
2018-11-14T07:41:19.640Z,6.09
2018-11-14T07:43:48.888Z,6.26
2018-11-14T07:46:18.183Z,6.30
2018-11-14T07:48:48.440Z,6.47
2018-11-14T07:51:17.729Z,6.42
2018-11-14T07:53:46.952Z,6.71
2018-11-14T07:56:16.123Z,6.92
2018-11-14T07:58:45.447Z,8.06
2018-11-14T08:01:14.797Z,8.32
2018-11-14T08:03:44.173Z,8.81
2018-11-14T08:06:13.461Z,9.24
2018-11-14T08:08:42.831Z,9.53
2018-11-14T08:11:12.007Z,9.70
2018-11-14T08:13:45.299Z,9.66
2018-11-14T08:16:14.484Z,9.84
2018-11-14T08:18:43.680Z,9.78
2018-11-14T08:21:12.852Z,9.65
2018-11-14T08:23:42.193Z,9.69
2018-11-14T08:26:11.322Z,8.66
2018-11-14T08:28:40.508Z,8.48
2018-11-14T08:31:10.136Z,8.68
2018-11-14T08:33:39.336Z,9.07
2018-11-14T08:36:08.695Z,9.77
2018-11-14T08:38:37.894Z,10.42
2018-11-14T08:41:07.229Z,10.37
2018-11-14T08:43:36.391Z,10.37
2018-11-14T08:46:06.327Z,8.90
2018-11-14T08:48:35.511Z,8.17
2018-11-14T08:51:04.907Z,7.97
2018-11-14T08:53:34.123Z,8.00
2018-11-14T08:56:03.349Z,7.68
2018-11-14T08:58:32.500Z,7.70
2018-11-14T09:01:01.732Z,7.10
2018-11-14T09:03:30.988Z,7.38
2018-11-14T09:06:00.178Z,7.42
2018-11-14T09:08:29.356Z,7.36
2018-11-14T09:10:58.823Z,7.26
2018-11-14T09:13:27.951Z,7.42
2018-11-14T09:15:57.150Z,7.40
2018-11-14T09:18:27.192Z,7.80
2018-11-14T09:20:56.301Z,7.71
2018-11-14T09:23:25.496Z,7.71
2018-11-14T09:25:54.655Z,7.36
2018-11-14T09:28:24.180Z,8.50
2018-11-14T09:30:53.326Z,7.99
2018-11-14T09:33:22.544Z,7.23
2018-11-14T09:35:51.734Z,7.37
2018-11-14T09:38:20.963Z,7.17
2018-11-14T09:40:50.235Z,7.77
2018-11-14T09:43:19.394Z,7.54
2018-11-14T09:45:48.578Z,7.77
2018-11-14T09:48:17.776Z,7.76
2018-11-14T09:50:46.935Z,7.78
2018-11-14T09:53:16.170Z,7.73
2018-11-14T09:55:45.453Z,7.65
2018-11-14T09:58:14.629Z,7.58
2018-11-14T10:00:43.830Z,7.37
2018-11-14T10:03:14.715Z,7.47
2018-11-14T10:05:43.945Z,7.21
2018-11-14T10:08:13.101Z,7.30
2018-11-14T10:10:42.309Z,7.57
2018-11-14T10:13:11.727Z,7.98
2018-11-14T10:15:40.978Z,8.56
2018-11-14T10:18:10.717Z,8.81
2018-11-14T10:20:39.906Z,8.49
2018-11-14T10:23:09.434Z,7.86
2018-11-14T10:25:39.593Z,7.54
2018-11-14T10:28:09.102Z,7.77
2018-11-14T10:30:38.296Z,7.83
2018-11-14T10:33:07.674Z,8.03
2018-11-14T10:35:36.826Z,7.91
2018-11-14T10:38:06.131Z,7.82
2018-11-14T10:40:35.367Z,7.54
2018-11-14T10:43:04.713Z,7.68
2018-11-14T10:45:33.809Z,8.16
2018-11-14T10:48:02.971Z,7.99
2018-11-14T10:50:32.266Z,8.17
2018-11-14T10:53:01.432Z,7.79
2018-11-14T10:55:30.598Z,8.31
2018-11-14T10:57:59.755Z,8.09
2018-11-14T11:00:35.308Z,7.67
2018-11-14T11:03:11.339Z,7.40
2018-11-14T11:05:46.166Z,7.46
2018-11-14T11:08:21.303Z,7.59
2018-11-14T11:10:56.891Z,7.89
2018-11-14T11:13:31.941Z,8.72
2018-11-14T11:16:07.303Z,8.91
2018-11-14T11:18:36.532Z,8.61
2018-11-14T11:21:05.744Z,8.06
2018-11-14T11:23:34.946Z,7.99
2018-11-14T11:26:04.102Z,8.08
2018-11-14T11:28:33.335Z,7.96
2018-11-14T11:31:02.920Z,8.31
2018-11-14T11:33:32.074Z,8.66
2018-11-14T11:36:01.233Z,8.87
2018-11-14T11:38:30.405Z,9.19
2018-11-14T11:40:59.586Z,9.55
2018-11-14T11:43:28.759Z,9.60
2018-11-14T11:45:58.220Z,9.31
2018-11-14T11:48:27.416Z,8.93
2018-11-14T11:50:56.775Z,8.25
2018-11-14T11:53:25.923Z,8.61
2018-11-14T11:55:55.153Z,8.39
2018-11-14T11:58:25.523Z,8.97
2018-11-14T12:00:54.780Z,9.32
2018-11-14T12:03:23.985Z,9.31
2018-11-14T12:05:53.225Z,8.59
2018-11-14T12:08:22.325Z,8.92
2018-11-14T12:10:51.587Z,8.74
2018-11-14T12:13:20.861Z,9.23
2018-11-14T12:15:49.962Z,8.96
2018-11-14T12:18:19.209Z,8.99
2018-11-14T12:20:48.408Z,8.44
2018-11-14T12:23:17.707Z,8.34
2018-11-14T12:25:46.867Z,8.58
2018-11-14T12:28:16.058Z,8.15
2018-11-14T12:30:45.641Z,7.99
2018-11-14T12:33:14.759Z,8.24
2018-11-14T12:35:44.003Z,8.33
2018-11-14T12:38:38.792Z,8.44
2018-11-14T12:41:07.818Z,8.55
2018-11-14T12:43:37.028Z,8.98
2018-11-14T12:46:06.283Z,9.29
2018-11-14T12:48:35.511Z,9.45
2018-11-14T12:51:04.686Z,9.56
2018-11-14T12:53:33.943Z,9.35
2018-11-14T12:56:03.098Z,9.65
2018-11-14T12:58:32.695Z,9.68
2018-11-14T13:01:01.878Z,9.65
2018-11-14T13:03:31.184Z,9.61
2018-11-14T13:06:00.305Z,9.25
2018-11-14T13:08:29.488Z,9.56
2018-11-14T13:10:58.659Z,9.72
2018-11-14T13:13:32.891Z,9.77
2018-11-14T13:16:02.054Z,9.62
2018-11-14T13:18:31.246Z,9.54
2018-11-14T13:21:00.393Z,9.80
2018-11-14T13:23:29.582Z,9.90
2018-11-14T13:25:58.748Z,9.61
2018-11-14T13:28:27.940Z,9.13
2018-11-14T13:30:57.084Z,9.35
2018-11-14T13:33:26.263Z,9.39
2018-11-14T13:35:55.431Z,9.46
2018-11-14T13:38:24.601Z,9.39
2018-11-14T13:40:53.792Z,9.18
2018-11-14T13:43:23.111Z,9.17
2018-11-14T13:45:52.170Z,9.31
2018-11-14T13:48:21.349Z,9.35
2018-11-14T13:50:50.843Z,9.41
2018-11-14T13:53:19.683Z,8.98
2018-11-14T13:55:48.837Z,8.97
2018-11-14T13:58:18.039Z,9.04
2018-11-14T14:00:47.268Z,9.09
2018-11-14T14:03:16.486Z,9.07
2018-11-14T14:05:45.729Z,9.22
2018-11-14T14:08:14.888Z,9.31
2018-11-14T14:10:44.040Z,9.26
2018-11-14T14:13:13.233Z,9.23
2018-11-14T14:15:42.405Z,9.40
2018-11-14T14:18:11.609Z,9.36
2018-11-14T14:20:40.808Z,9.52
2018-11-14T14:23:10.472Z,9.48
2018-11-14T14:25:39.655Z,9.28
2018-11-14T14:28:09.212Z,9.31
2018-11-14T14:30:38.420Z,9.36
2018-11-14T14:33:08.048Z,9.31
2018-11-14T14:35:37.253Z,9.37
2018-11-14T14:38:06.480Z,9.39
2018-11-14T14:40:35.595Z,9.71
2018-11-14T14:43:05.221Z,9.77
2018-11-14T14:45:34.367Z,9.62
2018-11-14T14:48:03.526Z,9.76
2018-11-14T14:50:32.691Z,9.71
2018-11-14T14:53:01.886Z,9.53
2018-11-14T14:55:31.131Z,9.36
2018-11-14T14:58:00.316Z,9.31
2018-11-14T15:00:29.547Z,9.32
2018-11-14T15:02:58.774Z,9.40
2018-11-14T15:05:27.952Z,9.45
2018-11-14T15:07:57.127Z,9.30
2018-11-14T15:10:26.290Z,9.28
2018-11-14T15:12:55.470Z,9.26
2018-11-14T15:15:24.718Z,9.07
2018-11-14T15:17:53.913Z,9.03
2018-11-14T15:20:24.217Z,8.92
2018-11-14T15:22:53.540Z,9.05
2018-11-14T15:25:23.525Z,8.95
2018-11-14T15:27:53.308Z,8.98
2018-11-14T15:30:26.677Z,8.77
2018-11-14T15:32:56.006Z,8.64
2018-11-14T15:35:25.339Z,8.55
2018-11-14T15:37:54.368Z,8.40
2018-11-14T15:40:24.975Z,8.42
2018-11-14T15:42:54.338Z,8.33
2018-11-14T15:45:25.311Z,8.15
2018-11-14T15:47:54.495Z,8.04
2018-11-14T15:50:24.965Z,8.03
2018-11-14T15:52:55.087Z,7.93
2018-11-14T15:55:24.447Z,7.97
2018-11-14T15:57:53.729Z,7.87
2018-11-14T16:00:25.071Z,7.78
2018-11-14T16:02:57.264Z,7.67
2018-11-14T16:05:27.439Z,7.72
2018-11-14T16:07:57.882Z,7.79
2018-11-14T16:10:27.943Z,7.76
2018-11-14T16:12:57.093Z,7.71
2018-11-14T16:15:27.568Z,7.69
2018-11-14T16:17:57.171Z,7.65
2018-11-14T16:20:26.727Z,7.55
2018-11-14T16:22:55.920Z,7.51
2018-11-14T16:25:25.839Z,7.50
2018-11-14T16:27:56.299Z,7.44
2018-11-14T16:30:26.794Z,7.36
2018-11-14T16:32:57.174Z,7.28
2018-11-14T16:35:26.416Z,7.25
2018-11-14T16:37:55.703Z,7.25
2018-11-14T16:40:26.076Z,7.21
2018-11-14T16:42:56.149Z,7.16
2018-11-14T16:45:25.354Z,7.11
2018-11-14T16:47:54.528Z,7.07
2018-11-14T16:50:24.092Z,7.03
2018-11-14T16:52:53.256Z,6.96
2018-11-14T16:55:22.811Z,6.92
2018-11-14T16:57:52.835Z,6.88
2018-11-14T17:00:27.131Z,6.84
2018-11-14T17:02:56.391Z,6.85
2018-11-14T17:05:26.652Z,6.84
2018-11-14T17:07:57.551Z,6.91
2018-11-14T17:10:27.562Z,6.99
2018-11-14T17:12:58.085Z,6.98
2018-11-14T17:15:27.771Z,6.95
2018-11-14T17:17:57.275Z,6.95
2018-11-14T17:20:27.373Z,7.00
2018-11-14T17:22:56.631Z,7.03
2018-11-14T17:25:25.869Z,7.07
2018-11-14T17:27:55.118Z,7.15
2018-11-14T17:30:25.829Z,7.10
2018-11-14T17:32:55.263Z,7.04
2018-11-14T17:35:25.979Z,7.04
2018-11-14T17:37:56.707Z,7.10
2018-11-14T17:40:27.121Z,7.06
2018-11-14T17:42:56.547Z,7.07
2018-11-14T17:45:27.949Z,7.21
2018-11-14T17:47:57.698Z,7.10
2018-11-14T17:50:29.430Z,7.13
2018-11-14T17:52:59.861Z,7.15
2018-11-14T17:55:29.372Z,7.19
2018-11-14T17:57:58.547Z,7.25
2018-11-14T18:00:29.138Z,7.24
2018-11-14T18:02:58.408Z,7.22
2018-11-14T18:05:28.833Z,7.21
2018-11-14T18:07:58.123Z,7.24
2018-11-14T18:10:28.539Z,7.29
2018-11-14T18:12:59.268Z,7.27
2018-11-14T18:15:28.519Z,7.24
2018-11-14T18:17:58.075Z,7.21
2018-11-14T18:20:29.450Z,7.21
2018-11-14T18:22:58.787Z,7.20
2018-11-14T18:25:28.076Z,7.28
2018-11-14T18:27:57.346Z,7.21
2018-11-14T18:30:30.569Z,7.18
2018-11-14T18:33:00.762Z,7.25
2018-11-14T18:35:31.352Z,7.24
2018-11-14T18:38:00.933Z,7.33
2018-11-14T18:40:31.837Z,7.39
2018-11-14T18:43:01.033Z,7.39
2018-11-14T18:45:32.832Z,7.48
2018-11-14T18:48:02.601Z,7.40
2018-11-14T18:50:31.884Z,7.43
2018-11-14T18:53:01.075Z,7.43
2018-11-14T18:55:31.695Z,7.47
2018-11-14T18:58:01.701Z,7.43
2018-11-14T19:00:32.341Z,7.45
2018-11-14T19:03:01.696Z,7.50
2018-11-14T19:05:30.947Z,7.45
2018-11-14T19:08:00.213Z,7.46
2018-11-14T19:10:30.772Z,7.51
2018-11-14T19:13:00.074Z,7.58
2018-11-14T19:15:30.739Z,7.53
2018-11-14T19:18:00.090Z,7.49
2018-11-14T19:20:30.579Z,7.57
2018-11-14T19:23:00.409Z,7.53
2018-11-14T19:25:30.953Z,7.51
2018-11-14T19:28:00.420Z,7.59
2018-11-14T19:30:30.708Z,7.59
2018-11-14T19:33:00.773Z,7.58
2018-11-14T19:35:30.165Z,7.52
2018-11-14T19:37:59.758Z,7.56
2018-11-14T19:40:36.209Z,7.53
2018-11-14T19:43:08.208Z,7.57
2018-11-14T19:45:38.276Z,7.62
2018-11-14T19:48:08.238Z,7.56
2018-11-14T19:50:38.327Z,7.58
2018-11-14T19:53:07.521Z,7.62
2018-11-14T19:55:37.117Z,7.56
2018-11-14T19:58:06.843Z,7.56
2018-11-14T20:00:37.898Z,7.56
2018-11-14T20:03:08.083Z,7.56
2018-11-14T20:05:37.431Z,7.65
2018-11-14T20:08:06.785Z,7.65
2018-11-14T20:10:36.096Z,7.66
2018-11-14T20:13:05.409Z,7.69
2018-11-14T20:15:35.754Z,7.75
2018-11-14T20:18:05.156Z,7.83
2018-11-14T20:20:35.747Z,7.79
2018-11-14T20:23:05.428Z,7.75
2018-11-14T20:25:35.018Z,7.61
2018-11-14T20:28:04.457Z,7.62
2018-11-14T20:30:34.970Z,7.61
2018-11-14T20:33:05.863Z,7.60
2018-11-14T20:35:35.047Z,7.47
2018-11-14T20:38:04.597Z,7.45
2018-11-14T20:40:33.816Z,7.48
2018-11-14T20:43:03.302Z,7.46
2018-11-14T20:45:33.666Z,7.43
2018-11-14T20:48:03.014Z,7.41
2018-11-14T20:50:32.266Z,7.40
2018-11-14T20:53:02.894Z,7.38
2018-11-14T20:55:32.915Z,7.35
2018-11-14T20:58:02.710Z,7.37
2018-11-14T21:00:34.169Z,7.33
2018-11-14T21:03:03.615Z,7.34
2018-11-14T21:05:33.022Z,7.33
2018-11-14T21:08:02.524Z,7.34
2018-11-14T21:10:32.907Z,7.30
2018-11-14T21:13:04.595Z,7.35
2018-11-14T21:15:36.183Z,7.40
2018-11-14T21:18:05.517Z,7.41
2018-11-14T21:20:34.687Z,7.36
2018-11-14T21:23:04.003Z,7.31
2018-11-14T21:25:33.911Z,7.36
2018-11-14T21:28:03.095Z,7.27
2018-11-14T21:30:32.326Z,7.35
2018-11-14T21:33:01.484Z,7.28
2018-11-14T21:35:33.138Z,7.23
2018-11-14T21:38:03.731Z,7.30
2018-11-14T21:40:32.881Z,7.29
2018-11-14T21:43:02.187Z,7.26
2018-11-14T21:45:31.664Z,7.20
2018-11-14T21:48:06.214Z,7.13
2018-11-14T21:50:35.475Z,7.15
2018-11-14T21:53:04.833Z,7.13
2018-11-14T21:55:33.979Z,7.18
2018-11-14T21:58:03.172Z,7.19
2018-11-14T22:00:33.506Z,7.11
2018-11-14T22:03:03.224Z,7.15
2018-11-14T22:05:33.697Z,7.05
2018-11-14T22:08:02.915Z,6.99
2018-11-14T22:10:32.142Z,6.87
2018-11-14T22:13:01.333Z,6.81
2018-11-14T22:15:31.227Z,6.81
2018-11-14T22:18:00.473Z,6.81
2018-11-14T22:20:30.201Z,6.84
2018-11-14T22:22:59.444Z,6.86
2018-11-14T22:25:29.556Z,6.93
2018-11-14T22:27:58.873Z,6.99
2018-11-14T22:30:30.097Z,6.93
2018-11-14T22:33:00.112Z,6.93
2018-11-14T22:50:38.764Z,6.70
2018-11-14T22:53:08.007Z,6.66
2018-11-14T22:55:37.182Z,6.82
2018-11-14T22:58:06.400Z,6.62
2018-11-14T23:00:40.778Z,6.61
2018-11-14T23:03:10.031Z,6.57
2018-11-14T23:05:39.214Z,6.59
2018-11-14T23:08:08.573Z,6.51
2018-11-14T23:10:40.840Z,6.65
2018-11-14T23:13:10.133Z,6.63
2018-11-14T23:15:39.360Z,6.56
2018-11-14T23:18:08.537Z,6.71
2018-11-14T23:20:37.727Z,6.58
2018-11-14T23:23:07.084Z,6.52
2018-11-14T23:25:36.243Z,6.57
2018-11-14T23:28:05.567Z,6.64
2018-11-14T23:30:34.733Z,6.77
2018-11-14T23:33:03.895Z,6.82
2018-11-14T23:35:34.328Z,6.82
2018-11-14T23:38:05.874Z,6.65
2018-11-14T23:40:35.100Z,6.44
2018-11-14T23:43:04.292Z,6.46
2018-11-14T23:45:33.444Z,6.40
2018-11-14T23:48:02.617Z,6.43
2018-11-14T23:50:32.745Z,6.35
2018-11-14T23:53:02.702Z,6.31
2018-11-14T23:55:33.169Z,6.33
2018-11-14T23:58:02.342Z,6.53
